Sand Key, FL current weather conditions

sailwx.info

Wind from 050 at 21 knots gusting 25

Air temperature 22.2° C
Dewpoint 17.8° C

Last reported at 2016-Dec-09 12:50 UTC.
Time now 2016-Dec-09 13:43 UTC

Location: N 24°27' W 081°53'.
View on Google Maps.

See reports from other nearby stations

  
Tides and Currents Weather Stations Pressure Air Temp Water Temp Dewpoint Dewpoint Depression Visibility Wind Speed Wind Dir Waves Ship Positions
date/time (UTC)wind fromknots sea level pressurealtimeterstation pressurevisibilityair tempwater tempwave heightnotes
2016-Dec-09 12:50 050 21 gusting 25 22.2
2016-Dec-09 11:50 040 26 gusting 28 22.0
2016-Dec-09 10:50 030 26 gusting 29 22.3
2016-Dec-09 09:50 030 20 gusting 24 22.3
2016-Dec-09 08:50 030 20 gusting 22 22.8
2016-Dec-09 07:50 030 19 gusting 20 23.2
2016-Dec-09 06:50 040 18 gusting 20 23.3
2016-Dec-09 05:50 040 18 gusting 20 23.8
2016-Dec-09 04:50 030 17 gusting 20 24.1
2016-Dec-09 03:50 030 14 gusting 17 24.1
2016-Dec-09 02:50 030 18 gusting 20 23.9
2016-Dec-09 01:50 030 17 gusting 19 23.9
2016-Dec-09 00:50 030 13 gusting 15 23.7
2016-Dec-08 23:50 020 13 gusting 15 23.4
2016-Dec-08 22:50 020 12 gusting 13 23.8
2016-Dec-08 21:50 030 11 gusting 13 24.0
2016-Dec-08 20:50 030 12 gusting 13 24.0
2016-Dec-08 19:50 030 9 gusting 11 24.6
2016-Dec-08 18:50 030 8 gusting 9 25.2
2016-Dec-08 17:50 050 8 gusting 9 24.5
2016-Dec-08 16:50 030 11 gusting 12 24.2
2016-Dec-08 15:50 040 11 gusting 12 24.2
2016-Dec-08 14:50 030 9 gusting 12 24.6
2016-Dec-08 13:50 050 6 gusting 6 24.7
2016-Dec-08 12:50 050 6 gusting 7 24.5
2016-Dec-08 11:50 060 9 gusting 11 24.5
2016-Dec-08 10:50 050 9 gusting 11 24.5
2016-Dec-08 09:50 060 8 gusting 9 24.4
2016-Dec-08 08:50 040 9 gusting 12 24.2
2016-Dec-08 07:50 030 11 gusting 13 24.4
2016-Dec-08 03:50 100 5 gusting 6 25.0
2016-Dec-08 02:50 070 6 gusting 8 24.8
2016-Dec-08 01:50 060 7 gusting 8 24.9
2016-Dec-08 00:50 040 11 gusting 12 25.1
2016-Dec-07 23:50 040 7 gusting 8 25.3
2016-Dec-07 22:50 040 8 gusting 9 25.2
2016-Dec-07 21:50 030 6 gusting 7 25.6
2016-Dec-07 20:50 040 5 gusting 5 25.9
2016-Dec-07 19:50 310 1 gusting 1 26.9
2016-Dec-07 18:50 26.2
2016-Dec-07 17:50 020 5 gusting 25 26.0
2016-Dec-07 16:50 310 1 gusting 2 25.7
2016-Dec-07 15:50 040 1 gusting 2 25.4
2016-Dec-07 14:50 200 5 gusting 6 25.2
2016-Dec-07 13:50 180 2 gusting 4 25.2